Terminal Aerodrome Forecast
Issued by NWS

Home | Current Version | Previous Version | Graphics & Text | Print | Product List | Glossary On
Versions: 1 2 3 4 5 6 7 8 9 10 11 12 13 14 15 16 17
000
FTUS43 KGRB 281726
TAFATW
TAF
KATW 281726Z 2818/2918 03015G23KT P6SM VCSH SCT015 OVC030
      TEMPO 2818/2820 3SM SHRA OVC015
     FM282200 03013KT P6SM BKN040
     FM290000 02010KT P6SM SCT050
     FM291600 30009KT P6SM SCT200=

USA.gov is the U.S. government's official web portal to all federal, state and local government web resources and services.